Omalius — ORRS — position and weather

sailwx.info

Track history (hours):
 
Tides and Currents Weather Stations Pressure Air Temp Water Temp Dewpoint Dewpoint Depression Visibility Wind Speed Wind Dir Waves Ship Positions

Omalius

Last reported at 2018-Jun-18 01:49 UTC. Time now 2018-Jun-18 02:14 UTC.
Position N 47°09' W 002°26'.

Length 83 m; draft 6.2 m.

Type: Other ship. MMSI: 205682000.

Date/timePositionNaut miles runAvg speedWind from/ knotsBaromVisibWave heightAir tempDewpointWater temp
2018-Jun-18 01:49N 47°09' W 002°26'0 0.1
2018-Jun-18 01:25N 47°09' W 002°26'0 0.2
2018-Jun-18 01:00N 47°09' W 002°26'0 0.1
2018-Jun-18 00:30N 47°09' W 002°26'0 0.0
2018-Jun-18 00:00N 47°09' W 002°26'0 0.1
2018-Jun-17 23:30N 47°09' W 002°26'0 0.0
2018-Jun-17 22:42N 47°09' W 002°26'0 0.0
2018-Jun-17 22:21N 47°09' W 002°26'0 0.0
2018-Jun-17 22:01N 47°09' W 002°26'0 0.0
2018-Jun-17 21:24N 47°09' W 002°26'0 0.0
2018-Jun-17 21:00N 47°09' W 002°26'0 0.1
2018-Jun-17 20:27N 47°09' W 002°26'0 0.0
2018-Jun-17 20:00N 47°09' W 002°26'0 0.0
2018-Jun-17 19:30N 47°09' W 002°26'0 0.0
2018-Jun-17 18:48N 47°09' W 002°26'0 0.0
2018-Jun-17 12:21N 47°09' W 002°26'0 0.1
2018-Jun-17 12:00N 47°09' W 002°26'0 0.0
2018-Jun-17 11:30N 47°09' W 002°26'0 0.0
2018-Jun-17 11:00N 47°09' W 002°27'0 0.0
2018-Jun-17 10:30N 47°09' W 002°27'0 0.0
2018-Jun-17 10:00N 47°09' W 002°27'0 0.0
2018-Jun-17 09:27N 47°09' W 002°26'0 0.1
2018-Jun-17 09:00N 47°09' W 002°26'0 0.0
2018-Jun-17 08:27N 47°09' W 002°26'0 0.1
2018-Jun-17 07:57N 47°09' W 002°26'0 0.0
2018-Jun-17 07:24N 47°09' W 002°26'0 0.0
2018-Jun-17 07:00N 47°09' W 002°26'0 0.0
2018-Jun-17 06:30N 47°09' W 002°26'0 0.0
2018-Jun-17 06:00N 47°09' W 002°26'0 0.0
2018-Jun-17 04:18N 47°09' W 002°26'0 0.1
2018-Jun-17 03:29N 47°09' W 002°26'3 6.3
2018-Jun-17 03:00N 47°06' W 002°29'510.1
2018-Jun-17 02:30N 47°01' W 002°30'510.6
2018-Jun-17 02:00N 46°56' W 002°31'3 5.3
2018-Jun-17 01:21N 46°53' W 002°29'0 0.0
2018-Jun-17 00:57N 46°53' W 002°29'0 0.0
2018-Jun-16 23:41N 46°53' W 002°29'0 0.0
2018-Jun-16 02:59N 46°53' W 002°29'0 0.0
2018-Jun-16 00:34N 46°53' W 002°29'0 0.2
2018-Jun-16 00:25N 46°53' W 002°29'6 8.3
2018-Jun-15 23:44N 46°58' W 002°31'311.0
2018-Jun-15 23:30N 47°01' W 002°30'610.9
2018-Jun-15 23:00N 47°06' W 002°28'0 0.2
2018-Jun-15 22:30N 47°06' W 002°28'0 0.0
2018-Jun-15 22:00N 47°06' W 002°28'0 0.0
2018-Jun-15 21:27N 47°06' W 002°28'0 0.0
2018-Jun-15 21:00N 47°06' W 002°28'0 0.0
2018-Jun-15 20:30N 47°06' W 002°28'0 0.0
2018-Jun-15 19:48N 47°06' W 002°28'0 0.0
2018-Jun-15 19:30N 47°06' W 002°28'0 0.0
2018-Jun-15 19:00N 47°06' W 002°28'0 0.0
2018-Jun-15 18:30N 47°06' W 002°28'0 0.0
2018-Jun-15 18:00N 47°06' W 002°28'0 0.0
2018-Jun-15 17:30N 47°06' W 002°28'0 0.0
2018-Jun-15 17:00N 47°06' W 002°28'0 0.0
2018-Jun-15 12:18N 47°06' W 002°28'0 0.1
2018-Jun-15 11:03N 47°06' W 002°28'0 0.1
2018-Jun-15 11:00N 47°06' W 002°28'0 0.1
2018-Jun-15 10:30N 47°06' W 002°28'0 0.0
2018-Jun-15 09:57N 47°06' W 002°28'0 0.0
2018-Jun-15 09:00N 47°06' W 002°28'0 0.0
2018-Jun-15 08:30N 47°06' W 002°28'0 0.0
2018-Jun-15 08:00N 47°06' W 002°28'0 0.0
2018-Jun-15 06:15N 47°06' W 002°28'0 0.0
2018-Jun-15 05:54N 47°06' W 002°28'0 0.0
2018-Jun-15 05:27N 47°06' W 002°28'0 0.0
2018-Jun-15 04:54N 47°06' W 002°28'0 0.0
2018-Jun-15 04:27N 47°06' W 002°28'0 0.0
2018-Jun-15 01:03N 47°06' W 002°28'0 0.0
2018-Jun-15 01:00N 47°06' W 002°28'0 0.0
2018-Jun-15 00:18N 47°06' W 002°28'0 0.0
2018-Jun-14 23:54N 47°06' W 002°28'0 0.1
2018-Jun-14 23:27N 47°06' W 002°28'0 0.1
2018-Jun-14 22:51N 47°06' W 002°28'0 0.0
2018-Jun-14 22:30N 47°06' W 002°28'0 0.0
2018-Jun-14 21:59N 47°06' W 002°28'0 0.0
2018-Jun-14 21:30N 47°06' W 002°28'2 3.1
2018-Jun-14 21:00N 47°05' W 002°29'5 9.3
2018-Jun-14 20:30N 47°01' W 002°33'510.4
2018-Jun-14 20:00N 46°59' W 002°40'12 3.8
2018-Jun-14 16:55N 46°49' W 002°29'2 0.1
2018-Jun-13 23:48N 46°50' W 002°26'0 0.0
2018-Jun-13 23:18N 46°50' W 002°26'0 0.0
2018-Jun-13 22:59N 46°50' W 002°26'0 0.0
2018-Jun-13 21:52N 46°50' W 002°26'0 0.0
2018-Jun-13 21:23N 46°50' W 002°26'0 0.0
2018-Jun-13 19:15N 46°50' W 002°26'0 0.0
2018-Jun-13 18:41N 46°50' W 002°26'0 0.0
2018-Jun-13 17:09N 46°50' W 002°26'0 0.0
2018-Jun-13 16:00N 46°50' W 002°26'0 0.0
2018-Jun-13 15:16N 46°50' W 002°26'0 0.0
2018-Jun-13 15:00N 46°50' W 002°26'0 0.0
2018-Jun-13 10:44N 46°50' W 002°26'0 0.0
2018-Jun-13 07:03N 46°50' W 002°26'0 0.3
2018-Jun-13 07:00N 46°50' W 002°26'0 0.0
2018-Jun-13 05:08N 46°50' W 002°26'0 0.0
2018-Jun-13 04:54N 46°50' W 002°26'0 0.0
2018-Jun-13 04:30N 46°50' W 002°26'0 0.0
2018-Jun-13 03:59N 46°50' W 002°26'0 0.0
2018-Jun-13 03:28N 46°50' W 002°26'0 0.0
2018-Jun-13 02:52N 46°50' W 002°26'0 0.0
2018-Jun-13 02:30N 46°50' W 002°26'0 0.0
2018-Jun-13 02:00N 46°50' W 002°26'0 0.0
2018-Jun-13 01:29N 46°50' W 002°26'0 0.0
2018-Jun-13 00:59N 46°50' W 002°26'0 0.0
2018-Jun-13 00:30N 46°50' W 002°26'0 0.0
2018-Jun-13 00:00N 46°50' W 002°26'0 0.0
2018-Jun-12 23:30N 46°50' W 002°26'0 0.0
2018-Jun-12 23:00N 46°50' W 002°26'0 0.0
2018-Jun-12 22:28N 46°50' W 002°26'0 0.0
2018-Jun-12 21:51N 46°50' W 002°26'0 0.0
2018-Jun-12 20:31N 46°50' W 002°26'0 0.0
2018-Jun-12 20:30N 46°50' W 002°26'19 5.1
2018-Jun-12 16:46N 47°09' W 002°20'19 2.3
2018-Jun-12 08:27N 46°50' W 002°26'0 0.0
2018-Jun-12 07:51N 46°50' W 002°26'7 0.2
2018-Jun-10 23:35N 46°56' W 002°33'0 0.0
2018-Jun-10 22:40N 46°56' W 002°33'0 0.0
2018-Jun-10 19:16N 46°56' W 002°33'0 0.0
2018-Jun-10 18:35N 46°56' W 002°33'25 3.4
2018-Jun-10 11:10N 47°17' W 002°12'0 0.2
2018-Jun-10 11:00N 47°17' W 002°12'0 0.0
2018-Jun-10 10:22N 47°17' W 002°12'0 0.0
2018-Jun-10 07:50N 47°17' W 002°12'0 0.0
2018-Jun-10 07:26N 47°17' W 002°12'0 0.0
2018-Jun-10 06:56N 47°17' W 002°12'0 0.0
2018-Jun-10 06:26N 47°17' W 002°12'0 0.0
2018-Jun-10 05:59N 47°17' W 002°12'0 0.0
2018-Jun-10 05:29N 47°17' W 002°12'0 0.0
2018-Jun-10 04:56N 47°17' W 002°12'0 0.0
2018-Jun-10 04:26N 47°17' W 002°12'0 0.0
2018-Jun-10 03:59N 47°17' W 002°12'0 0.0
2018-Jun-10 03:29N 47°17' W 002°12'0 0.0
2018-Jun-10 02:59N 47°17' W 002°12'0 0.0
2018-Jun-10 02:29N 47°17' W 002°12'0 0.0
2018-Jun-10 01:59N 47°17' W 002°12'0 0.0
2018-Jun-10 01:29N 47°17' W 002°12'0 0.0
2018-Jun-10 00:53N 47°17' W 002°12'0 0.0
2018-Jun-10 00:26N 47°17' W 002°12'0 0.0
2018-Jun-09 23:59N 47°17' W 002°12'0 0.0
2018-Jun-09 23:20N 47°17' W 002°12'0 0.0
2018-Jun-09 22:59N 47°17' W 002°12'0 0.0
2018-Jun-09 22:29N 47°17' W 002°12'0 0.0
2018-Jun-09 21:47N 47°17' W 002°12'0 0.0
2018-Jun-09 21:29N 47°17' W 002°12'0 0.0
2018-Jun-09 20:50N 47°17' W 002°12'0 0.0
2018-Jun-09 20:29N 47°17' W 002°12'0 0.0
2018-Jun-09 19:59N 47°17' W 002°12'0 0.0
2018-Jun-09 19:08N 47°17' W 002°12'0 0.0
2018-Jun-09 18:44N 47°17' W 002°12'0 0.0
2018-Jun-09 17:05N 47°17' W 002°12'0 0.0
2018-Jun-09 16:53N 47°17' W 002°12'0 0.0
2018-Jun-09 16:23N 47°17' W 002°12'0 0.0
2018-Jun-09 15:44N 47°17' W 002°12'0 0.0
2018-Jun-09 15:20N 47°17' W 002°12'0 0.0
2018-Jun-09 13:44N 47°17' W 002°12'0 0.0
2018-Jun-09 13:26N 47°17' W 002°12'0 0.0
2018-Jun-09 12:02N 47°17' W 002°12'0 0.0
2018-Jun-09 11:53N 47°17' W 002°12'0 0.0
2018-Jun-09 10:47N 47°17' W 002°12'0 0.0
2018-Jun-09 07:41N 47°17' W 002°12'0 0.0
2018-Jun-09 06:47N 47°17' W 002°12'0 0.0
2018-Jun-09 06:05N 47°17' W 002°12'0 0.0
2018-Jun-09 05:59N 47°17' W 002°12'0 0.0
2018-Jun-09 05:29N 47°17' W 002°12'0 0.0
2018-Jun-09 04:56N 47°17' W 002°12'0 0.0
2018-Jun-09 04:29N 47°17' W 002°12'0 0.0
2018-Jun-09 03:59N 47°17' W 002°12'0 0.0
2018-Jun-09 03:26N 47°17' W 002°12'0 0.0
2018-Jun-09 02:59N 47°17' W 002°12'0 0.0
2018-Jun-09 02:29N 47°17' W 002°12'0 0.0
2018-Jun-09 01:59N 47°17' W 002°12'0 0.0
2018-Jun-09 01:29N 47°17' W 002°12'0 0.0
2018-Jun-09 00:50N 47°17' W 002°12'0 0.0
2018-Jun-09 00:26N 47°17' W 002°12'0 0.0
2018-Jun-08 23:59N 47°17' W 002°12'0 0.0
2018-Jun-08 23:28N 47°17' W 002°12'0 0.0
2018-Jun-08 22:58N 47°17' W 002°12'0 0.0
2018-Jun-08 22:28N 47°17' W 002°12'0 0.0
2018-Jun-08 21:58N 47°17' W 002°12'0 0.0
2018-Jun-08 21:28N 47°17' W 002°12'0 0.0
2018-Jun-08 20:52N 47°17' W 002°12'0 0.0
2018-Jun-08 20:25N 47°17' W 002°12'0 0.0
2018-Jun-08 19:58N 47°17' W 002°12'0 0.0
2018-Jun-08 19:28N 47°17' W 002°12'0 0.0
2018-Jun-08 18:58N 47°17' W 002°12'0 0.0
2018-Jun-08 18:28N 47°17' W 002°12'0 0.0
2018-Jun-08 17:58N 47°17' W 002°12'0 0.0
2018-Jun-08 17:28N 47°17' W 002°12'0 0.0
2018-Jun-08 16:58N 47°17' W 002°12'0 0.0
2018-Jun-08 16:19N 47°17' W 002°12'0 0.0
2018-Jun-08 15:49N 47°17' W 002°12'0 0.0
2018-Jun-08 15:19N 47°17' W 002°12'0 0.0
2018-Jun-08 14:52N 47°17' W 002°12'0 0.0
2018-Jun-08 12:15N 47°17' W 002°12'0 0.0
2018-Jun-08 12:00N 47°17' W 002°12'1 1.4
2018-Jun-08 11:28N 47°16' W 002°12'0 0.1
2018-Jun-08 10:56N 47°16' W 002°12'3 6.1
2018-Jun-08 10:30N 47°14' W 002°15'612.2
2018-Jun-08 10:00N 47°09' W 002°19'4 9.0
2018-Jun-08 09:31N 47°06' W 002°24'4 7.7
2018-Jun-08 09:00N 47°03' W 002°28'4 8.1
2018-Jun-08 08:30N 46°59' W 002°30'5 8.7
2018-Jun-08 07:58N 46°55' W 002°31'6 3.4
2018-Jun-08 06:20N 46°49' W 002°30'1 1.2
2018-Jun-08 05:24N 46°50' W 002°31'2 1.0
2018-Jun-08 03:38N 46°52' W 002°32'0 0.0
2018-Jun-08 03:28N 46°52' W 002°32'2 1.4
2018-Jun-08 02:01N 46°54' W 002°32'0 0.0
2018-Jun-08 01:59N 46°54' W 002°32'  
Track history (hours):
 
Tides and Currents Weather Stations Pressure Air Temp Water Temp Dewpoint Dewpoint Depression Visibility Wind Speed Wind Dir Waves Ship Positions

Omalius

Last reported at 2018-Jun-18 01:49 UTC. Time now 2018-Jun-18 02:14 UTC.
Position N 47°09' W 002°26'.

Length 83 m; draft 6.2 m.

Type: Other ship. MMSI: 205682000.

Date/timePositionNaut miles runAvg speedWind from/ knotsBaromVisibWave heightAir tempDewpointWater temp
2018-Jun-18 01:49N 47°09' W 002°26'0 0.1
2018-Jun-18 01:25N 47°09' W 002°26'0 0.2
2018-Jun-18 01:00N 47°09' W 002°26'0 0.1
2018-Jun-18 00:30N 47°09' W 002°26'0 0.0
2018-Jun-18 00:00N 47°09' W 002°26'0 0.1
2018-Jun-17 23:30N 47°09' W 002°26'0 0.0
2018-Jun-17 22:42N 47°09' W 002°26'0 0.0
2018-Jun-17 22:21N 47°09' W 002°26'0 0.0
2018-Jun-17 22:01N 47°09' W 002°26'0 0.0
2018-Jun-17 21:24N 47°09' W 002°26'0 0.0
2018-Jun-17 21:00N 47°09' W 002°26'0 0.1
2018-Jun-17 20:27N 47°09' W 002°26'0 0.0
2018-Jun-17 20:00N 47°09' W 002°26'0 0.0
2018-Jun-17 19:30N 47°09' W 002°26'0 0.0
2018-Jun-17 18:48N 47°09' W 002°26'0 0.0
2018-Jun-17 12:21N 47°09' W 002°26'0 0.1
2018-Jun-17 12:00N 47°09' W 002°26'0 0.0
2018-Jun-17 11:30N 47°09' W 002°26'0 0.0
2018-Jun-17 11:00N 47°09' W 002°27'0 0.0
2018-Jun-17 10:30N 47°09' W 002°27'0 0.0
2018-Jun-17 10:00N 47°09' W 002°27'0 0.0
2018-Jun-17 09:27N 47°09' W 002°26'0 0.1
2018-Jun-17 09:00N 47°09' W 002°26'0 0.0
2018-Jun-17 08:27N 47°09' W 002°26'0 0.1
2018-Jun-17 07:57N 47°09' W 002°26'0 0.0
2018-Jun-17 07:24N 47°09' W 002°26'0 0.0
2018-Jun-17 07:00N 47°09' W 002°26'0 0.0
2018-Jun-17 06:30N 47°09' W 002°26'0 0.0
2018-Jun-17 06:00N 47°09' W 002°26'0 0.0
2018-Jun-17 04:18N 47°09' W 002°26'0 0.1
2018-Jun-17 03:29N 47°09' W 002°26'3 6.3
2018-Jun-17 03:00N 47°06' W 002°29'510.1
2018-Jun-17 02:30N 47°01' W 002°30'510.6
2018-Jun-17 02:00N 46°56' W 002°31'3 5.3
2018-Jun-17 01:21N 46°53' W 002°29'0 0.0
2018-Jun-17 00:57N 46°53' W 002°29'0 0.0
2018-Jun-16 23:41N 46°53' W 002°29'0 0.0
2018-Jun-16 02:59N 46°53' W 002°29'0 0.0
2018-Jun-16 00:34N 46°53' W 002°29'0 0.2
2018-Jun-16 00:25N 46°53' W 002°29'6 8.3
2018-Jun-15 23:44N 46°58' W 002°31'311.0
2018-Jun-15 23:30N 47°01' W 002°30'610.9
2018-Jun-15 23:00N 47°06' W 002°28'0 0.2
2018-Jun-15 22:30N 47°06' W 002°28'0 0.0
2018-Jun-15 22:00N 47°06' W 002°28'0 0.0
2018-Jun-15 21:27N 47°06' W 002°28'0 0.0
2018-Jun-15 21:00N 47°06' W 002°28'0 0.0
2018-Jun-15 20:30N 47°06' W 002°28'0 0.0
2018-Jun-15 19:48N 47°06' W 002°28'0 0.0
2018-Jun-15 19:30N 47°06' W 002°28'0 0.0
2018-Jun-15 19:00N 47°06' W 002°28'0 0.0
2018-Jun-15 18:30N 47°06' W 002°28'0 0.0
2018-Jun-15 18:00N 47°06' W 002°28'0 0.0
2018-Jun-15 17:30N 47°06' W 002°28'0 0.0
2018-Jun-15 17:00N 47°06' W 002°28'0 0.0
2018-Jun-15 12:18N 47°06' W 002°28'0 0.1
2018-Jun-15 11:03N 47°06' W 002°28'0 0.1
2018-Jun-15 11:00N 47°06' W 002°28'0 0.1
2018-Jun-15 10:30N 47°06' W 002°28'0 0.0
2018-Jun-15 09:57N 47°06' W 002°28'0 0.0
2018-Jun-15 09:00N 47°06' W 002°28'0 0.0
2018-Jun-15 08:30N 47°06' W 002°28'0 0.0
2018-Jun-15 08:00N 47°06' W 002°28'0 0.0
2018-Jun-15 06:15N 47°06' W 002°28'0 0.0
2018-Jun-15 05:54N 47°06' W 002°28'0 0.0
2018-Jun-15 05:27N 47°06' W 002°28'0 0.0
2018-Jun-15 04:54N 47°06' W 002°28'0 0.0
2018-Jun-15 04:27N 47°06' W 002°28'0 0.0
2018-Jun-15 01:03N 47°06' W 002°28'0 0.0
2018-Jun-15 01:00N 47°06' W 002°28'0 0.0
2018-Jun-15 00:18N 47°06' W 002°28'0 0.0
2018-Jun-14 23:54N 47°06' W 002°28'0 0.1
2018-Jun-14 23:27N 47°06' W 002°28'0 0.1
2018-Jun-14 22:51N 47°06' W 002°28'0 0.0
2018-Jun-14 22:30N 47°06' W 002°28'0 0.0
2018-Jun-14 21:59N 47°06' W 002°28'0 0.0
2018-Jun-14 21:30N 47°06' W 002°28'2 3.1
2018-Jun-14 21:00N 47°05' W 002°29'5 9.3
2018-Jun-14 20:30N 47°01' W 002°33'510.4
2018-Jun-14 20:00N 46°59' W 002°40'12 3.8
2018-Jun-14 16:55N 46°49' W 002°29'2 0.1
2018-Jun-13 23:48N 46°50' W 002°26'0 0.0
2018-Jun-13 23:18N 46°50' W 002°26'0 0.0
2018-Jun-13 22:59N 46°50' W 002°26'0 0.0
2018-Jun-13 21:52N 46°50' W 002°26'0 0.0
2018-Jun-13 21:23N 46°50' W 002°26'0 0.0
2018-Jun-13 19:15N 46°50' W 002°26'0 0.0
2018-Jun-13 18:41N 46°50' W 002°26'0 0.0
2018-Jun-13 17:09N 46°50' W 002°26'0 0.0
2018-Jun-13 16:00N 46°50' W 002°26'0 0.0
2018-Jun-13 15:16N 46°50' W 002°26'0 0.0
2018-Jun-13 15:00N 46°50' W 002°26'0 0.0
2018-Jun-13 10:44N 46°50' W 002°26'0 0.0
2018-Jun-13 07:03N 46°50' W 002°26'0 0.3
2018-Jun-13 07:00N 46°50' W 002°26'0 0.0
2018-Jun-13 05:08N 46°50' W 002°26'0 0.0
2018-Jun-13 04:54N 46°50' W 002°26'0 0.0
2018-Jun-13 04:30N 46°50' W 002°26'0 0.0
2018-Jun-13 03:59N 46°50' W 002°26'0 0.0
2018-Jun-13 03:28N 46°50' W 002°26'0 0.0
2018-Jun-13 02:52N 46°50' W 002°26'0 0.0
2018-Jun-13 02:30N 46°50' W 002°26'0 0.0
2018-Jun-13 02:00N 46°50' W 002°26'0 0.0
2018-Jun-13 01:29N 46°50' W 002°26'0 0.0
2018-Jun-13 00:59N 46°50' W 002°26'0 0.0
2018-Jun-13 00:30N 46°50' W 002°26'0 0.0
2018-Jun-13 00:00N 46°50' W 002°26'0 0.0
2018-Jun-12 23:30N 46°50' W 002°26'0 0.0
2018-Jun-12 23:00N 46°50' W 002°26'0 0.0
2018-Jun-12 22:28N 46°50' W 002°26'0 0.0
2018-Jun-12 21:51N 46°50' W 002°26'0 0.0
2018-Jun-12 20:31N 46°50' W 002°26'0 0.0
2018-Jun-12 20:30N 46°50' W 002°26'19 5.1
2018-Jun-12 16:46N 47°09' W 002°20'19 2.3
2018-Jun-12 08:27N 46°50' W 002°26'0 0.0
2018-Jun-12 07:51N 46°50' W 002°26'7 0.2
2018-Jun-10 23:35N 46°56' W 002°33'0 0.0
2018-Jun-10 22:40N 46°56' W 002°33'0 0.0
2018-Jun-10 19:16N 46°56' W 002°33'0 0.0
2018-Jun-10 18:35N 46°56' W 002°33'25 3.4
2018-Jun-10 11:10N 47°17' W 002°12'0 0.2
2018-Jun-10 11:00N 47°17' W 002°12'0 0.0
2018-Jun-10 10:22N 47°17' W 002°12'0 0.0
2018-Jun-10 07:50N 47°17' W 002°12'0 0.0
2018-Jun-10 07:26N 47°17' W 002°12'0 0.0
2018-Jun-10 06:56N 47°17' W 002°12'0 0.0
2018-Jun-10 06:26N 47°17' W 002°12'0 0.0
2018-Jun-10 05:59N 47°17' W 002°12'0 0.0
2018-Jun-10 05:29N 47°17' W 002°12'0 0.0
2018-Jun-10 04:56N 47°17' W 002°12'0 0.0
2018-Jun-10 04:26N 47°17' W 002°12'0 0.0
2018-Jun-10 03:59N 47°17' W 002°12'0 0.0
2018-Jun-10 03:29N 47°17' W 002°12'0 0.0
2018-Jun-10 02:59N 47°17' W 002°12'0 0.0
2018-Jun-10 02:29N 47°17' W 002°12'0 0.0
2018-Jun-10 01:59N 47°17' W 002°12'0 0.0
2018-Jun-10 01:29N 47°17' W 002°12'0 0.0
2018-Jun-10 00:53N 47°17' W 002°12'0 0.0
2018-Jun-10 00:26N 47°17' W 002°12'0 0.0
2018-Jun-09 23:59N 47°17' W 002°12'0 0.0
2018-Jun-09 23:20N 47°17' W 002°12'0 0.0
2018-Jun-09 22:59N 47°17' W 002°12'0 0.0
2018-Jun-09 22:29N 47°17' W 002°12'0 0.0
2018-Jun-09 21:47N 47°17' W 002°12'0 0.0
2018-Jun-09 21:29N 47°17' W 002°12'0 0.0
2018-Jun-09 20:50N 47°17' W 002°12'0 0.0
2018-Jun-09 20:29N 47°17' W 002°12'0 0.0
2018-Jun-09 19:59N 47°17' W 002°12'0 0.0
2018-Jun-09 19:08N 47°17' W 002°12'0 0.0
2018-Jun-09 18:44N 47°17' W 002°12'0 0.0
2018-Jun-09 17:05N 47°17' W 002°12'0 0.0
2018-Jun-09 16:53N 47°17' W 002°12'0 0.0
2018-Jun-09 16:23N 47°17' W 002°12'0 0.0
2018-Jun-09 15:44N 47°17' W 002°12'0 0.0
2018-Jun-09 15:20N 47°17' W 002°12'0 0.0
2018-Jun-09 13:44N 47°17' W 002°12'0 0.0
2018-Jun-09 13:26N 47°17' W 002°12'0 0.0
2018-Jun-09 12:02N 47°17' W 002°12'0 0.0
2018-Jun-09 11:53N 47°17' W 002°12'0 0.0
2018-Jun-09 10:47N 47°17' W 002°12'0 0.0
2018-Jun-09 07:41N 47°17' W 002°12'0 0.0
2018-Jun-09 06:47N 47°17' W 002°12'0 0.0
2018-Jun-09 06:05N 47°17' W 002°12'0 0.0
2018-Jun-09 05:59N 47°17' W 002°12'0 0.0
2018-Jun-09 05:29N 47°17' W 002°12'0 0.0
2018-Jun-09 04:56N 47°17' W 002°12'0 0.0
2018-Jun-09 04:29N 47°17' W 002°12'0 0.0
2018-Jun-09 03:59N 47°17' W 002°12'0 0.0
2018-Jun-09 03:26N 47°17' W 002°12'0 0.0
2018-Jun-09 02:59N 47°17' W 002°12'0 0.0
2018-Jun-09 02:29N 47°17' W 002°12'0 0.0
2018-Jun-09 01:59N 47°17' W 002°12'0 0.0
2018-Jun-09 01:29N 47°17' W 002°12'0 0.0
2018-Jun-09 00:50N 47°17' W 002°12'0 0.0
2018-Jun-09 00:26N 47°17' W 002°12'0 0.0
2018-Jun-08 23:59N 47°17' W 002°12'0 0.0
2018-Jun-08 23:28N 47°17' W 002°12'0 0.0
2018-Jun-08 22:58N 47°17' W 002°12'0 0.0
2018-Jun-08 22:28N 47°17' W 002°12'0 0.0
2018-Jun-08 21:58N 47°17' W 002°12'0 0.0
2018-Jun-08 21:28N 47°17' W 002°12'0 0.0
2018-Jun-08 20:52N 47°17' W 002°12'0 0.0
2018-Jun-08 20:25N 47°17' W 002°12'0 0.0
2018-Jun-08 19:58N 47°17' W 002°12'0 0.0
2018-Jun-08 19:28N 47°17' W 002°12'0 0.0
2018-Jun-08 18:58N 47°17' W 002°12'0 0.0
2018-Jun-08 18:28N 47°17' W 002°12'0 0.0
2018-Jun-08 17:58N 47°17' W 002°12'0 0.0
2018-Jun-08 17:28N 47°17' W 002°12'0 0.0
2018-Jun-08 16:58N 47°17' W 002°12'0 0.0
2018-Jun-08 16:19N 47°17' W 002°12'0 0.0
2018-Jun-08 15:49N 47°17' W 002°12'0 0.0
2018-Jun-08 15:19N 47°17' W 002°12'0 0.0
2018-Jun-08 14:52N 47°17' W 002°12'0 0.0
2018-Jun-08 12:15N 47°17' W 002°12'0 0.0
2018-Jun-08 12:00N 47°17' W 002°12'1 1.4
2018-Jun-08 11:28N 47°16' W 002°12'0 0.1
2018-Jun-08 10:56N 47°16' W 002°12'3 6.1
2018-Jun-08 10:30N 47°14' W 002°15'612.2
2018-Jun-08 10:00N 47°09' W 002°19'4 9.0
2018-Jun-08 09:31N 47°06' W 002°24'4 7.7
2018-Jun-08 09:00N 47°03' W 002°28'4 8.1
2018-Jun-08 08:30N 46°59' W 002°30'5 8.7
2018-Jun-08 07:58N 46°55' W 002°31'6 3.4
2018-Jun-08 06:20N 46°49' W 002°30'1 1.2
2018-Jun-08 05:24N 46°50' W 002°31'2 1.0
2018-Jun-08 03:38N 46°52' W 002°32'0 0.0
2018-Jun-08 03:28N 46°52' W 002°32'2 1.4
2018-Jun-08 02:01N 46°54' W 002°32'0 0.0
2018-Jun-08 01:59N 46°54' W 002°32'  

Dump ship's entire track history